Time;durP1;ratioP1;P1;durP2;ratioP2;P2;SDS_P1;SDS_P2;PMS_P1;PMS_P2;Temp;Humidity;BMP_temperature;BMP_pressure;BME280_temperature;BME280_humidity;BME280_pressure;Samples;Min_cycle;Max_cycle;Signal;HPM_P1;HPM_P2
2022/11/08 00:01:33;;;;;;;4.43;1.55;;;;;;;16.15;55.44;101035.34;4929142;28;97645;-71
2022/11/08 00:04:01;;;;;;;7.50;1.70;;;;;;;16.30;54.78;101042.53;4932248;28;98508;-70
2022/11/08 00:14:42;;;;;;;5.18;1.77;;;;;;;16.13;55.40;101042.59;4929908;28;98797;-71
2022/11/08 00:17:09;;;;;;;4.75;1.58;;;;;;;16.20;55.26;101040.47;4928263;28;97496;-70
2022/11/08 00:19:36;;;;;;;7.45;1.50;;;;;;;16.06;55.65;101038.53;4933638;28;98243;-72
2022/11/08 00:22:03;;;;;;;6.97;2.00;;;;;;;16.02;55.74;101047.63;4931706;28;99209;-70
2022/11/08 00:24:30;;;;;;;9.02;1.80;;;;;;;15.83;56.18;101038.88;4931152;28;96996;-72
2022/11/08 00:26:56;;;;;;;6.40;2.13;;;;;;;15.97;55.97;101048.81;4933257;28;96909;-71
2022/11/08 00:29:23;;;;;;;7.38;1.73;;;;;;;16.00;56.04;101052.19;4932550;28;98975;-72
2022/11/08 00:31:49;;;;;;;6.07;1.95;;;;;;;15.89;56.25;101051.88;4933008;28;100166;-70
2022/11/08 00:34:15;;;;;;;6.28;1.50;;;;;;;15.93;56.16;101042.78;4928600;28;97100;-71
2022/11/08 00:36:42;;;;;;;7.93;1.95;;;;;;;15.87;56.35;101051.97;4936479;28;96875;-71
2022/11/08 00:39:10;;;;;;;6.88;1.65;;;;;;;15.84;56.61;101051.25;4932200;28;98887;-72
2022/11/08 00:41:37;;;;;;;6.45;1.90;;;;;;;15.74;56.82;101058.88;4926894;28;97837;-71
2022/11/08 00:44:04;;;;;;;6.60;1.60;;;;;;;15.76;56.94;101050.78;4931524;28;96952;-72
2022/11/08 00:46:30;;;;;;;9.15;1.90;;;;;;;15.68;57.11;101047.69;4932315;28;96909;-71
2022/11/08 00:48:57;;;;;;;7.28;1.50;;;;;;;15.58;57.46;101054.41;4930364;28;99474;-71
2022/11/08 00:51:23;;;;;;;7.90;1.77;;;;;;;15.74;56.98;101053.56;4928839;28;99287;-70
2022/11/08 00:53:50;;;;;;;6.70;1.65;;;;;;;15.90;56.50;101056.25;4927530;28;97963;-71
2022/11/08 00:56:17;;;;;;;7.95;1.65;;;;;;;15.99;56.20;101055.78;4931611;28;98611;-70
2022/11/08 00:58:44;;;;;;;9.68;1.58;;;;;;;16.03;56.06;101060.00;4931555;28;99442;-71
2022/11/08 01:01:12;;;;;;;7.68;1.90;;;;;;;16.05;55.95;101058.13;4933175;28;98055;-71
2022/11/08 01:03:39;;;;;;;7.68;2.00;;;;;;;15.99;56.18;101055.78;4930317;28;97526;-71
2022/11/08 01:06:07;;;;;;;9.25;2.03;;;;;;;16.04;56.14;101053.72;4927978;28;98734;-72
2022/11/08 01:08:34;;;;;;;9.40;2.00;;;;;;;16.04;56.05;101045.72;4929465;28;99390;-70
2022/11/08 01:11:03;;;;;;;6.60;1.83;;;;;;;16.16;55.49;101054.88;4929826;28;99158;-70
2022/11/08 01:13:32;;;;;;;5.40;1.75;;;;;;;16.00;56.00;101056.66;4929938;28;97179;-70
2022/11/08 01:15:59;;;;;;;6.85;1.65;;;;;;;15.70;56.93;101053.78;4930718;28;97299;-71
2022/11/08 01:18:25;;;;;;;7.30;1.95;;;;;;;15.59;56.98;101056.13;4931242;28;99963;-70
2022/11/08 01:20:52;;;;;;;7.95;1.67;;;;;;;15.62;57.14;101053.34;4932116;28;99190;-72
2022/11/08 01:23:19;;;;;;;9.60;2.45;;;;;;;15.77;56.78;101061.38;4935231;28;96718;-71
2022/11/08 01:25:47;;;;;;;9.90;2.17;;;;;;;15.57;57.58;101047.34;4929866;28;97308;-70
2022/11/08 01:28:14;;;;;;;5.35;1.70;;;;;;;15.52;57.44;101040.47;4929234;28;98916;-71
2022/11/08 01:30:43;;;;;;;7.80;1.75;;;;;;;15.61;57.28;101036.47;4927894;28;99501;-70
2022/11/08 01:33:10;;;;;;;13.57;1.77;;;;;;;15.56;57.34;101041.16;4930649;28;97284;-70
2022/11/08 01:35:37;;;;;;;13.98;2.35;;;;;;;15.69;56.95;101042.25;4930992;28;96841;-70
2022/11/08 01:38:05;;;;;;;9.10;2.17;;;;;;;15.64;57.19;101038.97;4930941;28;98958;-71
2022/11/08 01:40:32;;;;;;;9.77;1.90;;;;;;;15.58;57.55;101033.97;4930245;28;98735;-70
2022/11/08 01:42:58;;;;;;;9.00;1.95;;;;;;;15.54;57.63;101033.28;4930528;28;96768;-70
2022/11/08 01:46:02;;;;;;;11.23;1.85;;;;;;;15.44;57.90;101034.63;4931404;28;96817;-70
2022/11/08 01:48:31;;;;;;;8.27;1.80;;;;;;;15.63;57.18;101031.91;4924566;28;99303;-71
2022/11/08 01:50:59;;;;;;;6.60;1.88;;;;;;;15.24;58.51;101028.59;4925416;28;98948;-72
2022/11/08 01:53:28;;;;;;;6.15;1.67;;;;;;;15.52;57.76;101042.25;4929398;28;96867;-70
2022/11/08 01:55:56;;;;;;;4.45;1.67;;;;;;;15.65;57.52;101040.69;4926356;28;96960;-71
2022/11/08 01:58:26;;;;;;;7.32;1.80;;;;;;;15.52;57.83;101039.56;4928646;28;99776;-71
2022/11/08 02:00:53;;;;;;;7.22;1.75;;;;;;;15.70;57.40;101038.66;4926336;28;99231;-71
2022/11/08 02:03:21;;;;;;;6.07;1.58;;;;;;;15.79;57.09;101039.97;4925519;28;98105;-70
2022/11/08 02:05:48;;;;;;;6.72;1.98;;;;;;;15.71;57.17;101045.72;4927412;28;97039;-71
2022/11/08 02:08:20;;;;;;;9.55;1.88;;;;;;;15.85;56.87;101037.84;4929946;28;99534;-70
2022/11/08 02:10:50;;;;;;;7.90;1.50;;;;;;;15.98;56.44;101032.75;4926415;28;99160;-72
2022/11/08 02:13:20;;;;;;;8.60;2.45;;;;;;;15.80;56.80;101036.38;4927705;28;96867;-71
2022/11/08 02:15:47;;;;;;;7.70;1.85;;;;;;;15.72;57.12;101031.44;4927708;28;97122;-71
2022/11/08 02:18:15;;;;;;;11.65;1.90;;;;;;;15.78;56.83;101028.47;4930852;28;98963;-71
2022/11/08 02:20:50;;;;;;;8.05;2.00;;;;;;;15.79;56.81;101016.88;4932505;28;99335;-71
2022/11/08 02:23:24;;;;;;;9.68;1.85;;;;;;;15.79;57.00;101024.84;4930000;28;96844;-71
2022/11/08 02:25:51;;;;;;;9.60;2.22;;;;;;;15.58;57.43;101020.66;4931847;28;97813;-72
2022/11/08 02:28:18;;;;;;;6.43;1.30;;;;;;;15.66;57.39;101025.59;4932805;28;98917;-71
2022/11/08 02:30:45;;;;;;;8.50;1.67;;;;;;;15.54;57.51;101035.94;4930226;28;98810;-71
2022/11/08 02:33:15;;;;;;;7.63;1.88;;;;;;;15.59;57.58;101032.16;4929506;28;98729;-71
2022/11/08 02:35:42;;;;;;;5.45;1.50;;;;;;;15.68;57.24;101029.03;4930004;28;97107;-70
2022/11/08 02:38:09;;;;;;;9.90;2.05;;;;;;;15.52;57.64;101035.16;4926064;28;99373;-72
2022/11/08 02:40:45;;;;;;;6.30;1.60;;;;;;;15.77;57.10;101034.72;4926003;28;99074;-72
2022/11/08 02:43:13;;;;;;;4.70;1.48;;;;;;;15.72;57.08;101031.44;4930746;28;96960;-71
2022/11/08 02:45:40;;;;;;;13.38;2.38;;;;;;;15.65;57.40;101026.50;4930409;28;98101;-71
2022/11/08 02:48:06;;;;;;;6.82;1.67;;;;;;;15.72;57.34;101034.13;4930723;28;99108;-71
2022/11/08 02:50:33;;;;;;;3.60;1.48;;;;;;;15.53;57.56;101028.88;4929440;28;101135;-73
2022/11/08 02:52:59;;;;;;;7.82;1.55;;;;;;;15.42;58.29;101031.22;4928303;28;98579;-72
2022/11/08 02:55:26;;;;;;;7.40;2.17;;;;;;;15.51;57.96;101033.38;4921151;28;96979;-71
2022/11/08 02:57:52;;;;;;;4.95;1.70;;;;;;;15.42;58.22;101033.88;4928385;28;99025;-71
2022/11/08 03:00:20;;;;;;;7.40;1.77;;;;;;;15.41;58.32;101026.81;4929674;28;99426;-70
2022/11/08 03:02:50;;;;;;;7.25;1.92;;;;;;;15.28;58.70;101024.84;4929341;28;97042;-70
2022/11/08 03:05:17;;;;;;;6.70;1.83;;;;;;;15.19;58.83;101028.84;4929056;28;96916;-72
2022/11/08 03:07:44;;;;;;;16.77;2.03;;;;;;;15.22;58.79;101031.34;4924037;28;98364;-70
2022/11/08 03:10:11;;;;;;;9.40;1.80;;;;;;;15.20;58.86;101027.03;4929369;28;98869;-70
2022/11/08 03:12:38;;;;;;;5.90;2.20;;;;;;;15.20;59.08;101024.38;4925708;28;96792;-70
2022/11/08 03:15:06;;;;;;;11.27;1.90;;;;;;;15.35;58.82;101035.13;4930295;28;96844;-71
2022/11/08 03:17:34;;;;;;;7.47;1.77;;;;;;;15.59;58.01;101030.38;4929359;28;98265;-70
2022/11/08 03:20:01;;;;;;;6.97;2.30;;;;;;;15.75;57.33;101030.44;4930253;28;99061;-71
2022/11/08 03:22:27;;;;;;;11.82;2.50;;;;;;;15.90;56.85;101030.47;4930811;28;97149;-70
2022/11/08 03:24:53;;;;;;;10.18;2.17;;;;;;;15.59;57.72;101022.38;4927122;28;97703;-72
2022/11/08 03:27:21;;;;;;;8.13;2.45;;;;;;;15.87;57.07;101025.31;4927811;28;98954;-70
2022/11/08 03:29:48;;;;;;;5.68;1.85;;;;;;;15.55;57.64;101026.16;4929618;28;98845;-70
2022/11/08 03:32:15;;;;;;;6.95;1.70;;;;;;;15.85;57.18;101027.19;4930502;28;98587;-71
2022/11/08 03:34:43;;;;;;;5.40;1.70;;;;;;;15.89;56.85;101027.88;4932613;28;97174;-71
2022/11/08 03:37:10;;;;;;;8.63;1.80;;;;;;;15.85;57.11;101029.00;4929191;28;99497;-71
2022/11/08 03:39:36;;;;;;;12.60;1.90;;;;;;;15.80;57.22;101031.06;4930704;28;99304;-71
2022/11/08 03:42:03;;;;;;;5.90;1.60;;;;;;;15.70;57.38;101024.47;4931829;28;97576;-70
2022/11/08 03:44:31;;;;;;;8.75;1.80;;;;;;;15.69;57.30;101020.06;4927333;28;96840;-69
2022/11/08 03:46:57;;;;;;;4.38;1.50;;;;;;;15.62;57.49;101018.69;4931518;28;99086;-71
2022/11/08 03:49:24;;;;;;;11.63;2.40;;;;;;;15.61;57.76;101017.84;4932554;28;100599;-70
2022/11/08 03:51:51;;;;;;;10.65;1.80;;;;;;;15.49;58.05;101027.25;4932171;28;98445;-71
2022/11/08 03:54:18;;;;;;;15.27;2.60;;;;;;;15.63;57.65;101015.06;4929432;28;96885;-71
2022/11/08 03:56:44;;;;;;;13.73;3.08;;;;;;;15.48;58.03;101028.22;4928854;28;99142;-71
2022/11/08 03:59:11;;;;;;;7.75;2.13;;;;;;;15.45;57.97;101015.06;4930722;28;98358;-71
2022/11/08 04:01:38;;;;;;;6.18;1.90;;;;;;;15.47;58.10;101015.84;4928532;28;96876;-71
2022/11/08 04:04:04;;;;;;;3.70;1.80;;;;;;;15.41;58.58;101013.50;4930400;28;97681;-71
2022/11/08 04:06:31;;;;;;;2.78;1.48;;;;;;;15.51;57.78;101016.53;4931028;28;98142;-71
2022/11/08 04:08:59;;;;;;;7.13;2.13;;;;;;;15.51;57.96;101019.19;4930129;28;99516;-71
2022/11/08 04:16:55;;;;;;;13.85;2.03;;;;;;;15.30;58.37;101023.81;4931976;28;98663;-70
2022/11/08 04:22:07;;;;;;;7.25;1.70;;;;;;;15.38;58.30;101026.09;4932849;28;97600;-70
2022/11/08 04:24:34;;;;;;;11.20;1.92;;;;;;;15.02;59.38;101034.13;4932768;28;97647;-70
2022/11/08 04:27:02;;;;;;;8.55;1.92;;;;;;;15.16;59.23;101023.69;4931354;28;98755;-71
2022/11/08 04:29:28;;;;;;;11.43;2.63;;;;;;;15.12;59.29;101035.41;4933262;28;99072;-71
2022/11/08 04:31:57;;;;;;;7.78;1.90;;;;;;;15.22;58.74;101026.03;4928682;28;97055;-70
2022/11/08 04:34:24;;;;;;;10.57;1.92;;;;;;;15.11;59.36;101020.34;4932459;28;96714;-70
2022/11/08 04:36:50;;;;;;;11.55;2.50;;;;;;;15.20;59.22;101022.56;4930233;28;99455;-70
2022/11/08 04:39:17;;;;;;;8.65;1.98;;;;;;;15.19;59.11;101014.66;4931121;28;98930;-70
2022/11/08 04:41:44;;;;;;;8.52;1.52;;;;;;;14.98;59.58;101012.13;4932169;28;96765;-70
2022/11/08 04:44:11;;;;;;;8.27;2.13;;;;;;;15.01;59.65;101021.78;4932171;28;96895;-71
2022/11/08 04:46:37;;;;;;;7.43;1.90;;;;;;;14.89;59.92;101017.06;4934549;28;99140;-71
2022/11/08 04:49:03;;;;;;;7.90;2.10;;;;;;;14.71;60.83;101021.44;4930880;28;98956;-70
2022/11/08 04:51:32;;;;;;;10.07;2.22;;;;;;;14.70;60.79;101030.38;4928641;28;98580;-70
2022/11/08 04:54:01;;;;;;;7.68;1.75;;;;;;;14.85;60.37;101029.63;4926476;28;97441;-71
2022/11/08 04:56:29;;;;;;;11.27;2.65;;;;;;;15.03;59.67;101031.38;4930513;28;99660;-71
2022/11/08 04:58:58;;;;;;;7.80;2.13;;;;;;;14.97;60.18;101028.16;4930382;28;98234;-70
2022/11/08 05:01:26;;;;;;;12.10;2.53;;;;;;;14.77;60.57;101028.28;4930689;28;97911;-71
2022/11/08 05:03:54;;;;;;;9.10;2.30;;;;;;;14.88;60.30;101028.63;4932382;28;97746;-70
2022/11/08 05:06:22;;;;;;;6.22;2.35;;;;;;;14.93;60.04;101023.94;4931287;28;98977;-70
2022/11/08 05:08:49;;;;;;;8.77;2.88;;;;;;;14.70;60.73;101031.22;4932271;28;99075;-70
2022/11/08 05:11:17;;;;;;;13.93;2.17;;;;;;;14.87;60.22;101024.25;4928610;28;96967;-70
2022/11/08 05:13:44;;;;;;;8.23;2.35;;;;;;;14.81;60.51;101024.53;4930878;28;96834;-70
2022/11/08 05:16:13;;;;;;;8.95;3.17;;;;;;;14.85;60.34;101029.63;4924480;28;99273;-70
2022/11/08 05:18:40;;;;;;;8.00;2.13;;;;;;;14.58;61.14;101026.50;4929637;28;97640;-70
2022/11/08 05:23:51;;;;;;;14.27;1.98;;;;;;;14.77;60.87;101034.44;4931960;28;96814;-70
2022/11/08 05:26:19;;;;;;;13.40;3.53;;;;;;;14.61;61.10;101028.16;4929996;28;98908;-70
2022/11/08 05:28:46;;;;;;;5.32;2.30;;;;;;;14.79;60.60;101029.94;4930708;28;99018;-70
2022/11/08 05:31:14;;;;;;;6.78;2.53;;;;;;;14.77;60.79;101025.63;4933947;28;97031;-70
2022/11/08 05:33:40;;;;;;;8.63;2.28;;;;;;;14.91;60.06;101020.47;4928706;28;97597;-70
2022/11/08 05:36:10;;;;;;;6.68;2.20;;;;;;;14.64;60.87;101030.66;4932413;28;99458;-71
2022/11/08 05:38:36;;;;;;;13.07;3.03;;;;;;;14.57;61.29;101018.63;4927912;28;97847;-71
2022/11/08 05:41:03;;;;;;;10.38;2.42;;;;;;;14.58;61.15;101021.16;4928879;28;98784;-70
2022/11/08 05:43:30;;;;;;;11.43;2.63;;;;;;;14.55;61.44;101013.34;4929121;28;96803;-71
2022/11/08 05:45:56;;;;;;;11.90;2.60;;;;;;;14.65;61.04;101024.41;4932481;28;98909;-71
2022/11/08 05:48:24;;;;;;;9.23;2.70;;;;;;;14.64;60.92;101012.91;4929892;28;102665;-71
2022/11/08 05:50:51;;;;;;;9.30;2.38;;;;;;;14.52;61.19;101017.94;4926668;28;97788;-71
2022/11/08 05:53:18;;;;;;;11.45;3.33;;;;;;;14.59;60.93;101022.91;4928915;28;96947;-70
2022/11/08 05:55:44;;;;;;;11.95;2.50;;;;;;;14.52;61.20;101017.94;4928283;28;99432;-71
2022/11/08 05:58:10;;;;;;;6.50;2.17;;;;;;;14.75;60.52;101026.56;4930356;28;99195;-71
2022/11/08 06:00:37;;;;;;;9.10;2.53;;;;;;;14.62;60.65;101028.09;4928431;28;98406;-70
2022/11/08 06:03:03;;;;;;;9.20;2.58;;;;;;;14.68;60.64;101024.28;4930510;28;97313;-70
2022/11/08 06:05:32;;;;;;;12.60;3.25;;;;;;;14.62;60.68;101035.19;4927696;28;98962;-70
2022/11/08 06:07:58;;;;;;;9.05;3.00;;;;;;;14.46;61.04;101031.53;4925287;28;100741;-70
2022/11/08 06:10:27;;;;;;;8.27;2.42;;;;;;;14.45;60.92;101032.47;4924459;28;97377;-70
2022/11/08 06:12:57;;;;;;;9.85;2.80;;;;;;;14.42;61.08;101038.81;4922180;28;97081;-70
2022/11/08 06:15:24;;;;;;;13.07;3.40;;;;;;;14.39;60.94;101036.28;4924289;28;97839;-70
2022/11/08 06:17:50;;;;;;;8.75;2.30;;;;;;;14.29;61.43;101041.13;4924678;28;99016;-71
2022/11/08 06:20:17;;;;;;;12.10;2.45;;;;;;;14.27;61.34;101044.78;4924660;28;96930;-71
2022/11/08 06:22:45;;;;;;;10.55;2.90;;;;;;;14.24;61.65;101039.63;4928321;28;96826;-71
2022/11/08 06:25:12;;;;;;;11.02;2.80;;;;;;;14.25;61.53;101044.84;4927371;28;101047;-71
2022/11/08 06:27:38;;;;;;;8.35;2.80;;;;;;;14.24;61.33;101045.78;4928003;28;98895;-70
2022/11/08 06:30:06;;;;;;;10.57;2.78;;;;;;;14.24;61.57;101056.41;4925305;28;97828;-70
2022/11/08 06:32:33;;;;;;;9.57;2.75;;;;;;;14.21;61.56;101053.03;4932690;28;98659;-71
2022/11/08 06:35:00;;;;;;;7.10;2.63;;;;;;;14.35;61.17;101058.59;4929892;28;99040;-71
2022/11/08 06:37:26;;;;;;;10.25;3.22;;;;;;;14.41;60.87;101044.19;4923770;28;98837;-70
2022/11/08 06:40:03;;;;;;;10.82;3.20;;;;;;;14.53;60.49;101048.91;4928358;28;96923;-71
2022/11/08 06:42:30;;;;;;;10.43;3.05;;;;;;;14.49;60.78;101048.22;4934299;28;96800;-70
2022/11/08 06:44:56;;;;;;;12.85;3.03;;;;;;;14.52;60.68;101045.41;4931077;28;100552;-69
2022/11/08 06:47:23;;;;;;;9.77;2.85;;;;;;;14.26;61.11;101051.03;4925715;28;98886;-72
2022/11/08 06:49:49;;;;;;;10.32;3.10;;;;;;;14.24;61.46;101045.78;4930141;28;97056;-71
2022/11/08 06:52:16;;;;;;;14.18;3.22;;;;;;;14.45;60.80;101062.56;4933446;28;97057;-70
2022/11/08 06:54:42;;;;;;;11.77;3.30;;;;;;;14.47;60.76;101051.88;4928827;28;100460;-70
2022/11/08 06:57:10;;;;;;;14.35;3.30;;;;;;;14.38;60.90;101046.97;4930017;28;98864;-70
2022/11/08 06:59:37;;;;;;;11.27;2.95;;;;;;;14.40;61.03;101045.97;4930600;28;96829;-70
2022/11/08 07:02:03;;;;;;;15.13;3.53;;;;;;;14.37;60.98;101056.75;4925982;28;97093;-71
2022/11/08 07:04:30;;;;;;;9.77;3.03;;;;;;;14.54;60.39;101054.19;4924125;28;97999;-71
2022/11/08 07:06:56;;;;;;;11.23;3.25;;;;;;;14.33;61.08;101049.81;4927670;28;99254;-70
2022/11/08 07:09:23;;;;;;;9.48;2.90;;;;;;;14.42;61.11;101054.75;4927882;28;96806;-71
2022/11/08 07:11:49;;;;;;;8.52;2.80;;;;;;;14.27;61.32;101058.06;4926431;28;96900;-71
2022/11/08 07:14:17;;;;;;;10.10;3.55;;;;;;;14.57;60.59;101043.38;4926717;28;99163;-71
2022/11/08 07:16:44;;;;;;;13.65;3.45;;;;;;;14.57;60.53;101050.53;4926268;28;99087;-70
2022/11/08 07:19:13;;;;;;;13.55;3.95;;;;;;;14.63;60.17;101048.44;4929325;28;97407;-70
2022/11/08 07:21:40;;;;;;;7.97;3.10;;;;;;;14.75;59.84;101041.66;4924025;28;97570;-70
2022/11/08 07:24:07;;;;;;;10.18;3.08;;;;;;;14.88;59.66;101044.59;4930173;28;98988;-70
2022/11/08 07:26:33;;;;;;;7.50;2.75;;;;;;;14.71;59.96;101042.72;4930354;28;99143;-70
2022/11/08 07:29:00;;;;;;;8.55;3.22;;;;;;;14.83;59.76;101039.50;4930151;28;96800;-70
2022/11/08 07:31:28;;;;;;;10.05;2.95;;;;;;;14.79;60.09;101039.69;4931408;28;96763;-71
2022/11/08 07:33:54;;;;;;;15.07;3.40;;;;;;;14.84;59.98;101048.31;4928298;28;99131;-70
2022/11/08 07:36:21;;;;;;;14.73;3.35;;;;;;;14.73;60.02;101048.84;4930606;28;99529;-72
2022/11/08 07:38:47;;;;;;;10.43;3.45;;;;;;;14.92;59.70;101060.31;4931637;28;97211;-70
2022/11/08 07:41:14;;;;;;;30.85;4.28;;;;;;;15.04;59.45;101041.09;4931311;28;96795;-73
2022/11/08 07:43:40;;;;;;;10.90;3.20;;;;;;;15.14;58.99;101050.38;4930107;28;99446;-70
2022/11/08 07:46:07;;;;;;;14.50;3.25;;;;;;;15.11;59.07;101045.19;4932099;28;98014;-70
2022/11/08 07:48:35;;;;;;;11.27;3.40;;;;;;;15.19;58.81;101044.81;4930918;28;96762;-71
2022/11/08 07:51:02;;;;;;;12.98;3.25;;;;;;;15.23;58.63;101046.34;4929825;28;96951;-72
2022/11/08 07:53:29;;;;;;;8.40;3.25;;;;;;;15.25;58.83;101049.81;4936787;28;100491;-71
2022/11/08 07:55:59;;;;;;;12.95;3.55;;;;;;;15.15;59.02;101040.56;4930785;28;99224;-71
2022/11/08 07:58:25;;;;;;;20.98;5.70;;;;;;;15.33;58.61;101044.97;4930783;28;96811;-71
2022/11/08 08:00:52;;;;;;;9.70;3.20;;;;;;;15.38;58.59;101040.28;4930601;28;96984;-71
2022/11/08 08:03:18;;;;;;;9.90;3.17;;;;;;;15.52;57.92;101037.81;4930125;28;99120;-71
2022/11/08 08:05:53;;;;;;;10.10;3.35;;;;;;;15.35;58.59;101028.94;4929871;28;99048;-71
2022/11/08 08:08:23;;;;;;;13.05;2.90;;;;;;;15.31;58.81;101024.69;4932691;28;98259;-70
2022/11/08 08:10:50;;;;;;;10.35;3.10;;;;;;;15.21;59.33;101026.09;4931028;28;97068;-70
2022/11/08 08:13:18;;;;;;;9.65;2.60;;;;;;;15.45;58.62;101024.84;4930311;28;98941;-71
2022/11/08 08:15:47;;;;;;;11.38;3.10;;;;;;;15.35;58.88;101021.81;4930150;28;98975;-69
2022/11/08 08:18:19;;;;;;;11.15;2.72;;;;;;;15.43;58.88;101018.72;4932784;28;96725;-70
2022/11/08 08:20:48;;;;;;;7.82;2.90;;;;;;;15.48;58.69;101020.25;4933705;28;96783;-71
2022/11/08 08:23:20;;;;;;;11.77;2.70;;;;;;;15.54;58.14;101019.09;4933117;28;99326;-71
2022/11/08 08:25:46;;;;;;;10.52;2.63;;;;;;;15.63;58.29;101007.06;4937240;28;99102;-70
2022/11/08 08:28:13;;;;;;;8.52;2.72;;;;;;;15.62;58.09;101010.72;4933292;28;97136;-70
2022/11/08 08:30:39;;;;;;;10.60;2.78;;;;;;;15.89;57.53;101002.09;4932182;28;97290;-69
2022/11/08 08:33:08;;;;;;;6.85;3.05;;;;;;;15.76;57.51;101013.50;4932444;28;99487;-72
2022/11/08 08:35:35;;;;;;;9.77;2.83;;;;;;;16.11;57.04;101011.63;4932153;28;97671;-69
2022/11/08 08:38:05;;;;;;;13.68;3.08;;;;;;;16.13;56.64;101013.25;4933047;28;96634;-69
2022/11/08 08:40:32;;;;;;;9.82;2.88;;;;;;;16.23;56.41;101017.13;4939104;28;97403;-70
2022/11/08 08:42:59;;;;;;;10.20;2.60;;;;;;;16.28;56.21;101009.75;4936107;28;99007;-70
2022/11/08 08:45:27;;;;;;;8.88;2.45;;;;;;;16.48;55.76;101005.97;4932413;28;101053;-70
2022/11/08 08:47:55;;;;;;;9.35;3.60;;;;;;;16.58;55.24;101006.34;4933059;28;96769;-69
2022/11/08 08:50:23;;;;;;;8.45;2.78;;;;;;;16.53;55.33;101003.06;4933138;28;97287;-69
2022/11/08 08:52:50;;;;;;;9.55;2.53;;;;;;;16.65;55.07;100997.94;4932936;28;98871;-69
2022/11/08 08:55:18;;;;;;;7.10;1.90;;;;;;;16.86;54.62;100995.00;4932432;28;100666;-72
2022/11/08 08:57:45;;;;;;;6.85;2.25;;;;;;;16.90;54.54;100993.84;4935412;28;98861;-70
2022/11/08 09:00:13;;;;;;;6.68;2.17;;;;;;;16.81;54.72;100991.72;4942637;28;96852;-69
2022/11/08 09:02:39;;;;;;;10.30;2.65;;;;;;;17.01;54.17;101004.75;4914000;28;102837;-71
2022/11/08 09:05:06;;;;;;;10.45;2.03;;;;;;;17.23;53.70;100997.22;4929607;28;99500;-70
2022/11/08 09:07:33;;;;;;;8.25;2.10;;;;;;;17.27;53.42;101001.44;4929757;28;96802;-71
2022/11/08 09:09:59;;;;;;;12.02;2.85;;;;;;;17.42;53.04;101003.19;4930543;28;96986;-70
2022/11/08 09:12:27;;;;;;;7.57;1.95;;;;;;;17.37;53.18;101002.63;4929449;28;99067;-70
2022/11/08 09:14:54;;;;;;;13.32;2.38;;;;;;;17.51;52.73;101004.47;4925412;28;98885;-71
2022/11/08 09:17:20;;;;;;;6.03;2.28;;;;;;;17.39;52.74;100994.53;4927793;28;97107;-71
2022/11/08 09:19:47;;;;;;;13.20;2.25;;;;;;;17.63;52.61;101001.09;4926462;28;97849;-70
2022/11/08 09:22:13;;;;;;;7.97;2.17;;;;;;;17.64;52.26;101001.94;4928785;28;98103;-71
2022/11/08 09:24:40;;;;;;;8.38;2.00;;;;;;;17.72;52.41;101005.03;4923798;28;99009;-69
2022/11/08 09:27:07;;;;;;;14.07;2.90;;;;;;;17.84;51.64;101005.13;4927744;28;98509;-70
2022/11/08 09:29:35;;;;;;;15.02;3.40;;;;;;;18.02;51.51;100997.78;4925966;28;97933;-71
2022/11/08 09:32:07;;;;;;;10.82;2.75;;;;;;;17.95;51.46;101000.91;4927064;28;100408;-70
2022/11/08 09:34:33;;;;;;;6.93;1.88;;;;;;;18.12;51.11;100992.69;4929117;28;100911;-68
2022/11/08 09:37:00;;;;;;;8.65;2.10;;;;;;;17.96;51.15;100995.47;4929350;28;96716;-71
2022/11/08 09:39:26;;;;;;;10.60;2.38;;;;;;;17.81;51.78;100997.28;4929608;28;96860;-70
2022/11/08 09:42:23;;;;;;;11.13;2.08;;;;;;;18.00;51.46;100990.78;4929856;28;101412;-70
2022/11/08 09:45:16;;;;;;;14.20;2.53;;;;;;;18.25;50.65;100990.97;4926538;28;99249;-71
2022/11/08 09:47:47;;;;;;;6.28;1.70;;;;;;;18.23;50.93;100990.22;4929945;28;97228;-70
2022/11/08 09:50:21;;;;;;;10.85;2.00;;;;;;;18.51;50.08;100992.81;4926958;28;96877;-71
2022/11/08 09:52:52;;;;;;;6.97;1.55;;;;;;;18.64;49.62;100988.44;4929462;28;100943;-69
2022/11/08 09:55:26;;;;;;;8.32;1.48;;;;;;;18.59;49.67;100992.38;4927521;28;99222;-70
2022/11/08 09:58:08;;;;;;;6.15;1.83;;;;;;;18.63;49.75;100985.88;4927984;28;96808;-70
2022/11/08 10:00:39;;;;;;;5.78;1.90;;;;;;;18.79;49.57;100977.69;4927554;28;97033;-70
2022/11/08 10:03:12;;;;;;;5.68;1.70;;;;;;;19.00;48.94;100971.78;4925503;28;101066;-70
2022/11/08 10:05:42;;;;;;;6.78;1.70;;;;;;;19.08;48.41;100974.81;4925062;28;99390;-69
2022/11/08 10:08:26;;;;;;;4.13;1.50;;;;;;;18.96;48.88;100969.41;4927803;28;97421;-70
2022/11/08 10:11:02;;;;;;;6.07;1.50;;;;;;;18.95;49.16;100970.38;4922880;28;96864;-69
2022/11/08 10:13:38;;;;;;;7.85;2.08;;;;;;;19.03;48.66;100973.41;4927461;28;99220;-70
2022/11/08 10:16:17;;;;;;;4.55;1.40;;;;;;;18.82;49.13;100967.66;4928583;28;99056;-69
2022/11/08 10:18:58;;;;;;;9.05;1.70;;;;;;;18.95;48.39;100965.00;4926924;28;97266;-69
2022/11/08 10:21:50;;;;;;;7.80;1.83;;;;;;;18.83;49.32;100963.16;4927573;28;97025;-69
2022/11/08 10:24:25;;;;;;;5.60;1.75;;;;;;;18.85;49.05;100966.56;4926735;28;99672;-69
2022/11/08 10:26:54;;;;;;;8.43;1.58;;;;;;;19.07;48.90;100958.84;4928292;28;99239;-71
2022/11/08 10:29:23;;;;;;;4.35;1.48;;;;;;;19.35;48.36;100956.00;4923953;28;97081;-71
2022/11/08 10:31:58;;;;;;;5.40;1.15;;;;;;;19.59;47.59;100966.00;4928678;28;97001;-69
2022/11/08 10:34:28;;;;;;;5.25;1.63;;;;;;;19.68;47.15;100968.06;4925508;28;99264;-70
2022/11/08 10:37:02;;;;;;;5.55;1.75;;;;;;;19.64;47.18;100958.50;4927763;28;99006;-71
2022/11/08 10:39:34;;;;;;;7.95;2.20;;;;;;;19.54;47.25;100954.75;4925107;28;96933;-71
2022/11/08 10:42:07;;;;;;;4.97;1.02;;;;;;;19.49;47.47;100961.28;4928782;28;96812;-70
2022/11/08 10:44:35;;;;;;;6.40;1.60;;;;;;;19.33;47.61;100951.69;4928775;28;99469;-69
2022/11/08 10:47:05;;;;;;;7.45;1.40;;;;;;;19.32;47.56;100945.47;4929427;28;100915;-71
2022/11/08 10:49:34;;;;;;;7.90;1.77;;;;;;;19.47;47.40;100947.16;4927617;28;97536;-70
2022/11/08 10:52:12;;;;;;;7.50;1.75;;;;;;;19.64;47.24;100948.63;4928315;28;97329;-69
2022/11/08 10:54:45;;;;;;;8.13;2.00;;;;;;;19.67;46.89;100945.75;4927777;28;99239;-69
2022/11/08 10:57:13;;;;;;;9.40;2.25;;;;;;;19.67;47.31;100952.94;4927746;28;98844;-70
2022/11/08 10:59:40;;;;;;;4.88;1.50;;;;;;;19.59;47.23;100947.25;4924700;28;96794;-69
2022/11/08 11:02:24;;;;;;;7.03;1.23;;;;;;;19.46;47.38;100937.38;4928328;28;97217;-70
2022/11/08 11:04:50;;;;;;;8.43;1.42;;;;;;;19.24;47.68;100939.78;4925148;28;99090;-70
2022/11/08 11:07:31;;;;;;;6.07;1.48;;;;;;;19.18;48.11;100934.84;4929508;28;99288;-70
2022/11/08 11:09:58;;;;;;;6.15;1.50;;;;;;;19.11;48.49;100930.88;4929533;28;97848;-69
2022/11/08 11:12:24;;;;;;;5.78;1.30;;;;;;;19.08;48.51;100926.59;4927826;28;97278;-71
2022/11/08 11:14:58;;;;;;;4.13;1.48;;;;;;;19.33;48.23;100933.81;4926502;28;99332;-70
2022/11/08 11:17:30;;;;;;;5.97;1.60;;;;;;;19.44;48.12;100928.56;4929147;28;100088;-71
2022/11/08 11:19:57;;;;;;;7.72;1.70;;;;;;;19.31;48.30;100927.69;4928588;28;96865;-69
2022/11/08 11:22:28;;;;;;;5.65;1.73;;;;;;;19.31;48.65;100927.69;4926800;28;97098;-71
2022/11/08 11:24:55;;;;;;;6.70;1.35;;;;;;;19.06;48.55;100927.66;4927258;28;99161;-70
2022/11/08 11:27:26;;;;;;;9.43;2.03;;;;;;;19.20;48.32;100922.22;4927559;28;98953;-70
2022/11/08 11:30:19;;;;;;;4.68;1.17;;;;;;;19.23;48.66;100915.81;4926981;28;96773;-71
2022/11/08 11:33:02;;;;;;;4.53;1.33;;;;;;;19.43;47.81;100921.47;4927530;28;97241;-71
2022/11/08 11:35:37;;;;;;;4.55;1.30;;;;;;;19.43;48.04;100917.94;4922976;28;98893;-70
2022/11/08 11:38:08;;;;;;;6.15;1.40;;;;;;;19.64;47.56;100910.25;4926458;28;96989;-71
2022/11/08 11:40:38;;;;;;;4.85;1.30;;;;;;;19.66;47.05;100911.88;4923557;28;96810;-71
2022/11/08 11:43:10;;;;;;;6.15;1.52;;;;;;;19.67;46.98;100902.00;4924452;28;97499;-72
2022/11/08 11:45:46;;;;;;;9.73;1.50;;;;;;;19.80;46.47;100898.34;4926853;28;100890;-73
2022/11/08 11:48:16;;;;;;;;;;;;;;;19.58;46.38;100895.47;4923323;28;98841;-71